• Join FlightAware (Why Join?)
  • Login
  • US Flag 
06:28PM EDT


 

Airport Tracker/Info


-or-


 

Live Flight TrackerFlight Track Log ✈ ASQ2566 ✈ 15-Apr-2013 ✈ KBTR - KDFW

Flight Track Log - Related Links

Times and Time Zones

All times are in EDT time to prevent confusion due to time zone crossing. See the ASQ2566 flight status page for this flight to view local times or setup timezone preferences in your user account.

Time Position Orientation Groundspeed Altitude Reporting Facility
EDT Latitude Longitude Course Direction KTS MPH feet Rate Location/Type
09:20PM 30.4969 -91.1183 297° West 168 193 26,000  Level Houston Center
09:21PM 30.4744 -91.1703 243° Southwest 218 251 4,800 -8,880 Descending Houston Center
09:22PM 30.4817 -91.2569 276° West 259 298 7,800 2,580 Climbing Houston Center
09:23PM 30.4950 -91.3444 280° West 274 315 10,100 1,860 Climbing Houston Center
09:24PM 30.5417 -91.4592 295° West 317 365 11,700 1,620 Climbing Houston Center
09:25PM 30.7752 -91.7111 297° West  Level Estimated
09:25PM 30.5786 -91.5592 293° West 333 383 13,500  Level Houston Center
09:26PM 30.6153 -91.6617 293° West 340 391 15,500 1,800 Climbing Houston Center
09:27PM 30.6536 -91.7619 294° West 340 391 17,200 1,380 Climbing Houston Center
09:28PM 30.6925 -91.8653 294° West 349 402 18,400 1,080 Climbing Houston Center
09:29PM 30.7314 -91.9725 293° West 357 411 19,500 1,140 Climbing Houston Center
09:30PM 30.7717 -92.0819 293° West 364 419 20,800 1,200 Climbing Houston Center
09:31PM 30.8111 -92.1917 293° West 367 422 22,000 1,020 Climbing Houston Center
09:32PM 30.8589 -92.3253 293° West 371 427 22,900 720 Climbing Houston Center
09:33PM 30.9000 -92.4417 292° West 381 438 23,500 540 Climbing Houston Center
09:34PM 30.9433 -92.5636 293° West 400 460 24,100 720 Climbing Houston Center
09:35PM 30.9867 -92.6825 293° West 397 457 25,000 840 Climbing Houston Center
09:36PM 31.0289 -92.8014 293° West 395 455 25,900 480 Climbing Houston Center
09:37PM 31.0722 -92.9211 293° West 397 457 26,000  Climbing Houston Center
09:38PM 31.1156 -93.0464 292° West 408 470 26,000  Level Houston Center
09:39PM 31.1608 -93.1725 293° West 417 480 26,000  Level Houston Center
09:40PM 31.2053 -93.3000 292° West 422 486 26,000  Level Houston Center
09:41PM 31.2514 -93.4292 293° West 427 491 26,000  Level Houston Center
09:42PM 31.2958 -93.5583 292° West 429 494 26,000  Level Houston Center
09:43PM 31.3456 -93.6939 293° West 428 493 26,000  Level Houston Center
09:44PM 31.3894 -93.8225 292° West 427 491 26,000  Level Houston Center
09:45PM 31.4103 -93.8792 293° West 428 493 26,000  Level Fort Worth Center
09:46PM 31.4533 -94.0092 291° West 428 493 26,000  Level Fort Worth Center
09:47PM 31.4942 -94.1244 293° West 428 493 26,000  Level Fort Worth Center
09:48PM 31.5347 -94.2425 292° West 416 479 26,000  Level Fort Worth Center
09:49PM 31.5731 -94.3606 291° West 406 467 26,000  Level Fort Worth Center
09:50PM 31.6156 -94.4811 293° West 406 467 26,000  Level Fort Worth Center
09:51PM 31.6561 -94.6042 291° West 406 467 26,000  Level Fort Worth Center
09:52PM 31.6983 -94.7275 292° West 406 467 26,000  Level Fort Worth Center
09:53PM 31.7386 -94.8508 291° West 406 467 26,000  Level Fort Worth Center
09:54PM 31.7806 -94.9769 291° West 406 467 26,000  Level Fort Worth Center
09:55PM 31.8228 -95.1028 292° West 406 467 26,000  Level Fort Worth Center
09:56PM 31.8644 -95.2267 292° West 406 467 26,000  Level Fort Worth Center
09:57PM 31.9064 -95.3578 291° West 411 473 26,000  Level Fort Worth Center
09:58PM 31.9481 -95.4867 291° West 416 479 26,000  Level Fort Worth Center
09:59PM 31.9961 -95.6253 292° West 416 479 26,000  Level Fort Worth Center
10:00PM 32.0356 -95.7567 290° West 421 484 26,000  Level Fort Worth Center
10:01PM 32.0808 -95.8833 293° West 421 484 26,000 -600 Level Fort Worth Center
10:02PM 32.1222 -96.0153 290° West 426 490 24,800 -1,500 Descending Fort Worth Center
10:03PM 32.1631 -96.1469 290° West 433 498 23,100 -2,160 Descending Fort Worth Center
10:04PM 32.2269 -96.2642 303° West 426 490 20,500 -2,700 Descending Fort Worth Center
10:05PM 32.3072 -96.3614 314° West 420 483 17,800 -2,820 Descending Fort Worth Center
10:06PM 32.3850 -96.4539 315° West 399 459 14,900 -2,640 Descending Fort Worth Center
10:07PM 32.4608 -96.5417 316° Northwest 387 445 12,600 -1,980 Descending Fort Worth Center
10:08PM 32.5367 -96.6347 314° West 387 445 11,000 -840 Descending Fort Worth Center
10:09PM 32.6103 -96.7228 315° West 387 445 11,000  Level Fort Worth Center
10:10PM 32.6775 -96.8014 315° West 382 440 11,000  Level Fort Worth Center
10:11PM 32.7425 -96.8800 315° West 329 379 11,000 -420 Level Fort Worth Center
10:12PM 32.8167 -96.9000 347° North 275 316 10,200 -1,440 Descending Dallas / Fort Worth TRACON
10:12PM 32.8833 -96.9000 360° North 274 315 8,400 -2,100 Descending Dallas / Fort Worth TRACON
10:13PM 32.9500 -96.9000 360° North 252 290 6,300 -2,280 Descending Dallas / Fort Worth TRACON
10:15PM 33.0167 -96.9500 328° Northwest 239 275 3,700 -1,620 Descending Dallas / Fort Worth TRACON
10:16PM 33.0333 -97.0167 287° West 218 251 2,900 -780 Descending Dallas / Fort Worth TRACON
10:16PM 33.0000 -97.0500 220° Southwest 173 199 2,300 -780 Descending Dallas / Fort Worth TRACON
10:17PM 32.9667 -97.0500 180° South 121 139 1,500 -780 Descending Dallas / Fort Worth TRACON
10:18PM 32.9333 -97.0500 180° South 118 136 900 -600 Descending Dallas / Fort Worth TRACON